sensor_id;sensor_type;location;lat;lon;timestamp;P1;durP1;ratioP1;P2;durP2;ratioP2
64597;SDS011;51004;54.692;9.332;2023-09-07T00:00:43;9.65;;;6.70;;
64597;SDS011;51004;54.692;9.332;2023-09-07T00:03:09;9.52;;;6.65;;
64597;SDS011;51004;54.692;9.332;2023-09-07T00:05:35;12.00;;;7.25;;
64597;SDS011;51004;54.692;9.332;2023-09-07T00:08:04;9.13;;;6.68;;
64597;SDS011;51004;54.692;9.332;2023-09-07T00:10:31;9.07;;;6.97;;
64597;SDS011;51004;54.692;9.332;2023-09-07T00:13:03;7.65;;;6.50;;
64597;SDS011;51004;54.692;9.332;2023-09-07T00:15:30;10.40;;;6.95;;
64597;SDS011;51004;54.692;9.332;2023-09-07T00:17:56;8.82;;;6.05;;
64597;SDS011;51004;54.692;9.332;2023-09-07T00:20:22;8.27;;;6.88;;
64597;SDS011;51004;54.692;9.332;2023-09-07T00:22:48;10.57;;;6.63;;
64597;SDS011;51004;54.692;9.332;2023-09-07T00:25:15;8.73;;;6.25;;
64597;SDS011;51004;54.692;9.332;2023-09-07T00:27:41;7.25;;;5.80;;
64597;SDS011;51004;54.692;9.332;2023-09-07T00:30:07;7.47;;;6.35;;
64597;SDS011;51004;54.692;9.332;2023-09-07T00:32:35;9.38;;;6.47;;
64597;SDS011;51004;54.692;9.332;2023-09-07T00:35:02;8.30;;;6.30;;
64597;SDS011;51004;54.692;9.332;2023-09-07T00:37:28;7.35;;;5.68;;
64597;SDS011;51004;54.692;9.332;2023-09-07T00:39:54;11.73;;;7.00;;
64597;SDS011;51004;54.692;9.332;2023-09-07T00:42:20;9.63;;;6.20;;
64597;SDS011;51004;54.692;9.332;2023-09-07T00:44:46;8.27;;;5.53;;
64597;SDS011;51004;54.692;9.332;2023-09-07T00:47:13;6.78;;;5.88;;
64597;SDS011;51004;54.692;9.332;2023-09-07T00:49:39;8.57;;;6.05;;
64597;SDS011;51004;54.692;9.332;2023-09-07T00:52:05;8.48;;;6.25;;
64597;SDS011;51004;54.692;9.332;2023-09-07T00:54:31;8.77;;;5.80;;
64597;SDS011;51004;54.692;9.332;2023-09-07T00:56:57;10.25;;;6.07;;
64597;SDS011;51004;54.692;9.332;2023-09-07T00:59:23;7.55;;;5.80;;
64597;SDS011;51004;54.692;9.332;2023-09-07T01:01:49;6.90;;;5.50;;
64597;SDS011;51004;54.692;9.332;2023-09-07T01:04:15;7.30;;;5.47;;
64597;SDS011;51004;54.692;9.332;2023-09-07T01:07:03;8.57;;;5.63;;
64597;SDS011;51004;54.692;9.332;2023-09-07T01:09:28;8.18;;;5.63;;
64597;SDS011;51004;54.692;9.332;2023-09-07T01:11:56;7.82;;;6.07;;
64597;SDS011;51004;54.692;9.332;2023-09-07T01:14:22;8.23;;;5.68;;
64597;SDS011;51004;54.692;9.332;2023-09-07T01:16:48;6.93;;;5.15;;
64597;SDS011;51004;54.692;9.332;2023-09-07T01:19:15;6.55;;;5.18;;
64597;SDS011;51004;54.692;9.332;2023-09-07T01:21:41;10.50;;;6.10;;
64597;SDS011;51004;54.692;9.332;2023-09-07T01:24:10;7.07;;;5.10;;
64597;SDS011;51004;54.692;9.332;2023-09-07T01:26:37;7.93;;;6.28;;
64597;SDS011;51004;54.692;9.332;2023-09-07T01:29:07;7.43;;;5.10;;
64597;SDS011;51004;54.692;9.332;2023-09-07T01:31:37;8.90;;;5.60;;
64597;SDS011;51004;54.692;9.332;2023-09-07T01:34:03;6.13;;;5.53;;
64597;SDS011;51004;54.692;9.332;2023-09-07T01:36:29;7.20;;;5.82;;
64597;SDS011;51004;54.692;9.332;2023-09-07T01:38:55;9.18;;;5.88;;
64597;SDS011;51004;54.692;9.332;2023-09-07T01:41:21;7.25;;;5.22;;
64597;SDS011;51004;54.692;9.332;2023-09-07T01:43:47;8.82;;;5.47;;
64597;SDS011;51004;54.692;9.332;2023-09-07T01:46:13;8.63;;;5.78;;
64597;SDS011;51004;54.692;9.332;2023-09-07T01:48:39;7.82;;;5.35;;
64597;SDS011;51004;54.692;9.332;2023-09-07T01:51:07;8.38;;;5.53;;
64597;SDS011;51004;54.692;9.332;2023-09-07T01:53:33;10.65;;;5.90;;
64597;SDS011;51004;54.692;9.332;2023-09-07T01:55:59;6.18;;;5.55;;
64597;SDS011;51004;54.692;9.332;2023-09-07T01:58:25;9.98;;;5.15;;
64597;SDS011;51004;54.692;9.332;2023-09-07T02:00:52;9.63;;;5.85;;
64597;SDS011;51004;54.692;9.332;2023-09-07T02:03:18;5.82;;;5.15;;
64597;SDS011;51004;54.692;9.332;2023-09-07T02:05:45;9.32;;;5.45;;
64597;SDS011;51004;54.692;9.332;2023-09-07T02:08:12;6.50;;;5.18;;
64597;SDS011;51004;54.692;9.332;2023-09-07T02:10:38;8.35;;;5.35;;
64597;SDS011;51004;54.692;9.332;2023-09-07T02:13:04;11.40;;;6.07;;
64597;SDS011;51004;54.692;9.332;2023-09-07T02:15:30;6.93;;;4.97;;
64597;SDS011;51004;54.692;9.332;2023-09-07T02:17:56;6.30;;;5.05;;
64597;SDS011;51004;54.692;9.332;2023-09-07T02:20:22;7.63;;;5.22;;
64597;SDS011;51004;54.692;9.332;2023-09-07T02:22:48;6.25;;;5.32;;
64597;SDS011;51004;54.692;9.332;2023-09-07T02:25:14;7.45;;;5.03;;
64597;SDS011;51004;54.692;9.332;2023-09-07T02:27:40;8.98;;;4.85;;
64597;SDS011;51004;54.692;9.332;2023-09-07T02:30:06;7.65;;;4.70;;
64597;SDS011;51004;54.692;9.332;2023-09-07T02:32:32;6.47;;;5.28;;
64597;SDS011;51004;54.692;9.332;2023-09-07T02:34:58;9.95;;;5.43;;
64597;SDS011;51004;54.692;9.332;2023-09-07T02:37:24;6.78;;;4.68;;
64597;SDS011;51004;54.692;9.332;2023-09-07T02:39:50;9.73;;;5.63;;
64597;SDS011;51004;54.692;9.332;2023-09-07T02:42:19;7.47;;;4.90;;
64597;SDS011;51004;54.692;9.332;2023-09-07T02:44:45;5.68;;;4.50;;
64597;SDS011;51004;54.692;9.332;2023-09-07T02:47:11;7.75;;;5.50;;
64597;SDS011;51004;54.692;9.332;2023-09-07T02:49:37;6.80;;;5.15;;
64597;SDS011;51004;54.692;9.332;2023-09-07T02:52:05;6.40;;;4.80;;
64597;SDS011;51004;54.692;9.332;2023-09-07T02:54:31;6.15;;;5.15;;
64597;SDS011;51004;54.692;9.332;2023-09-07T02:56:57;7.18;;;5.25;;
64597;SDS011;51004;54.692;9.332;2023-09-07T02:59:23;6.72;;;5.05;;
64597;SDS011;51004;54.692;9.332;2023-09-07T03:01:52;6.32;;;5.00;;
64597;SDS011;51004;54.692;9.332;2023-09-07T03:04:18;7.82;;;5.60;;
64597;SDS011;51004;54.692;9.332;2023-09-07T03:06:44;7.63;;;5.63;;
64597;SDS011;51004;54.692;9.332;2023-09-07T03:09:22;9.23;;;5.07;;
64597;SDS011;51004;54.692;9.332;2023-09-07T03:11:48;9.30;;;5.93;;
64597;SDS011;51004;54.692;9.332;2023-09-07T03:14:16;6.47;;;5.63;;
64597;SDS011;51004;54.692;9.332;2023-09-07T03:16:55;9.30;;;5.30;;
64597;SDS011;51004;54.692;9.332;2023-09-07T03:22:25;6.82;;;5.47;;
64597;SDS011;51004;54.692;9.332;2023-09-07T03:24:53;7.25;;;6.20;;
64597;SDS011;51004;54.692;9.332;2023-09-07T03:27:27;7.63;;;6.50;;
64597;SDS011;51004;54.692;9.332;2023-09-07T03:29:53;7.18;;;6.40;;
64597;SDS011;51004;54.692;9.332;2023-09-07T03:32:19;7.47;;;6.63;;
64597;SDS011;51004;54.692;9.332;2023-09-07T03:34:44;7.47;;;6.43;;
64597;SDS011;51004;54.692;9.332;2023-09-07T03:37:10;8.23;;;7.03;;
64597;SDS011;51004;54.692;9.332;2023-09-07T03:39:36;10.63;;;6.85;;
64597;SDS011;51004;54.692;9.332;2023-09-07T03:42:02;9.82;;;7.13;;
64597;SDS011;51004;54.692;9.332;2023-09-07T03:44:28;10.10;;;7.32;;
64597;SDS011;51004;54.692;9.332;2023-09-07T03:46:54;9.75;;;8.43;;
64597;SDS011;51004;54.692;9.332;2023-09-07T03:49:20;12.63;;;8.18;;
64597;SDS011;51004;54.692;9.332;2023-09-07T03:51:46;10.35;;;8.07;;
64597;SDS011;51004;54.692;9.332;2023-09-07T03:54:12;11.90;;;8.07;;
64597;SDS011;51004;54.692;9.332;2023-09-07T03:56:38;9.48;;;8.40;;
64597;SDS011;51004;54.692;9.332;2023-09-07T03:59:04;13.98;;;8.95;;
64597;SDS011;51004;54.692;9.332;2023-09-07T04:01:31;12.27;;;9.75;;
64597;SDS011;51004;54.692;9.332;2023-09-07T04:03:58;15.27;;;10.18;;
64597;SDS011;51004;54.692;9.332;2023-09-07T04:06:23;13.93;;;10.13;;
64597;SDS011;51004;54.692;9.332;2023-09-07T04:08:49;14.27;;;10.98;;
64597;SDS011;51004;54.692;9.332;2023-09-07T04:11:18;15.55;;;12.32;;
64597;SDS011;51004;54.692;9.332;2023-09-07T04:13:44;13.18;;;11.20;;
64597;SDS011;51004;54.692;9.332;2023-09-07T04:16:10;15.88;;;11.57;;
64597;SDS011;51004;54.692;9.332;2023-09-07T04:18:42;17.92;;;12.27;;
64597;SDS011;51004;54.692;9.332;2023-09-07T05:50:53;34.75;;;27.25;;
64597;SDS011;51004;54.692;9.332;2023-09-07T05:53:19;38.40;;;28.35;;
64597;SDS011;51004;54.692;9.332;2023-09-07T05:55:45;41.17;;;27.88;;
64597;SDS011;51004;54.692;9.332;2023-09-07T05:58:12;33.75;;;26.50;;
64597;SDS011;51004;54.692;9.332;2023-09-07T06:00:46;38.10;;;28.60;;
64597;SDS011;51004;54.692;9.332;2023-09-07T06:03:12;39.97;;;29.23;;
64597;SDS011;51004;54.692;9.332;2023-09-07T06:05:38;40.35;;;27.83;;
64597;SDS011;51004;54.692;9.332;2023-09-07T06:08:05;39.33;;;27.88;;
64597;SDS011;51004;54.692;9.332;2023-09-07T06:10:32;35.38;;;26.27;;
64597;SDS011;51004;54.692;9.332;2023-09-07T06:12:58;38.22;;;26.35;;
64597;SDS011;51004;54.692;9.332;2023-09-07T06:15:25;35.95;;;26.92;;
64597;SDS011;51004;54.692;9.332;2023-09-07T06:17:52;36.22;;;26.65;;
64597;SDS011;51004;54.692;9.332;2023-09-07T06:20:17;34.70;;;26.98;;
64597;SDS011;51004;54.692;9.332;2023-09-07T06:22:44;36.08;;;25.85;;
64597;SDS011;51004;54.692;9.332;2023-09-07T06:25:10;37.90;;;25.45;;
64597;SDS011;51004;54.692;9.332;2023-09-07T06:27:36;36.83;;;26.83;;
64597;SDS011;51004;54.692;9.332;2023-09-07T06:30:05;39.40;;;28.15;;
64597;SDS011;51004;54.692;9.332;2023-09-07T06:32:32;42.05;;;28.67;;
64597;SDS011;51004;54.692;9.332;2023-09-07T06:34:58;41.20;;;27.00;;
64597;SDS011;51004;54.692;9.332;2023-09-07T06:37:24;36.67;;;28.20;;
64597;SDS011;51004;54.692;9.332;2023-09-07T06:39:50;36.20;;;27.40;;
64597;SDS011;51004;54.692;9.332;2023-09-07T06:42:16;38.20;;;26.52;;
64597;SDS011;51004;54.692;9.332;2023-09-07T06:44:43;40.85;;;26.10;;
64597;SDS011;51004;54.692;9.332;2023-09-07T06:47:10;34.95;;;24.65;;
64597;SDS011;51004;54.692;9.332;2023-09-07T06:49:37;31.27;;;24.10;;
64597;SDS011;51004;54.692;9.332;2023-09-07T06:52:03;30.85;;;24.40;;
64597;SDS011;51004;54.692;9.332;2023-09-07T06:54:29;29.65;;;24.08;;
64597;SDS011;51004;54.692;9.332;2023-09-07T06:56:55;28.90;;;24.02;;
64597;SDS011;51004;54.692;9.332;2023-09-07T06:59:21;31.80;;;23.85;;
64597;SDS011;51004;54.692;9.332;2023-09-07T07:01:47;43.20;;;24.55;;
64597;SDS011;51004;54.692;9.332;2023-09-07T07:04:13;27.13;;;22.55;;
64597;SDS011;51004;54.692;9.332;2023-09-07T07:06:39;30.40;;;23.00;;
64597;SDS011;51004;54.692;9.332;2023-09-07T07:09:06;32.90;;;23.70;;
64597;SDS011;51004;54.692;9.332;2023-09-07T07:11:32;28.00;;;23.55;;
64597;SDS011;51004;54.692;9.332;2023-09-07T07:13:58;32.67;;;23.63;;
64597;SDS011;51004;54.692;9.332;2023-09-07T07:16:24;25.92;;;21.90;;
64597;SDS011;51004;54.692;9.332;2023-09-07T07:18:50;26.80;;;20.92;;
64597;SDS011;51004;54.692;9.332;2023-09-07T07:21:16;23.08;;;20.45;;
64597;SDS011;51004;54.692;9.332;2023-09-07T07:23:42;28.48;;;21.08;;
64597;SDS011;51004;54.692;9.332;2023-09-07T07:26:11;30.63;;;21.30;;
64597;SDS011;51004;54.692;9.332;2023-09-07T07:28:44;26.55;;;19.63;;
64597;SDS011;51004;54.692;9.332;2023-09-07T07:31:10;24.15;;;18.95;;
64597;SDS011;51004;54.692;9.332;2023-09-07T07:33:36;23.13;;;18.13;;
64597;SDS011;51004;54.692;9.332;2023-09-07T07:36:03;21.20;;;16.85;;
64597;SDS011;51004;54.692;9.332;2023-09-07T07:38:29;23.15;;;16.48;;
64597;SDS011;51004;54.692;9.332;2023-09-07T07:40:58;23.85;;;17.00;;
64597;SDS011;51004;54.692;9.332;2023-09-07T07:46:12;17.15;;;15.15;;
64597;SDS011;51004;54.692;9.332;2023-09-07T07:48:41;18.27;;;16.13;;
64597;SDS011;51004;54.692;9.332;2023-09-07T07:51:07;21.45;;;17.17;;
64597;SDS011;51004;54.692;9.332;2023-09-07T07:53:34;16.75;;;14.52;;
64597;SDS011;51004;54.692;9.332;2023-09-07T07:56:00;21.30;;;16.08;;
64597;SDS011;51004;54.692;9.332;2023-09-07T07:58:28;20.13;;;14.70;;
64597;SDS011;51004;54.692;9.332;2023-09-07T08:00:54;18.60;;;15.70;;
64597;SDS011;51004;54.692;9.332;2023-09-07T08:03:22;17.70;;;14.85;;
64597;SDS011;51004;54.692;9.332;2023-09-07T08:05:49;15.90;;;13.70;;
64597;SDS011;51004;54.692;9.332;2023-09-07T08:08:15;13.13;;;11.82;;
64597;SDS011;51004;54.692;9.332;2023-09-07T08:10:41;18.40;;;13.98;;
64597;SDS011;51004;54.692;9.332;2023-09-07T08:13:07;15.32;;;12.65;;
64597;SDS011;51004;54.692;9.332;2023-09-07T08:15:42;16.75;;;13.63;;
64597;SDS011;51004;54.692;9.332;2023-09-07T08:18:08;18.33;;;13.02;;
64597;SDS011;51004;54.692;9.332;2023-09-07T08:20:34;15.35;;;13.52;;
64597;SDS011;51004;54.692;9.332;2023-09-07T08:23:01;16.63;;;14.20;;
64597;SDS011;51004;54.692;9.332;2023-09-07T08:25:30;14.68;;;11.55;;
64597;SDS011;51004;54.692;9.332;2023-09-07T08:27:56;13.23;;;11.95;;
64597;SDS011;51004;54.692;9.332;2023-09-07T08:30:24;13.75;;;12.05;;
64597;SDS011;51004;54.692;9.332;2023-09-07T08:32:51;13.90;;;11.00;;
64597;SDS011;51004;54.692;9.332;2023-09-07T08:35:17;13.55;;;11.30;;
64597;SDS011;51004;54.692;9.332;2023-09-07T08:37:43;16.25;;;12.27;;
64597;SDS011;51004;54.692;9.332;2023-09-07T08:40:09;14.35;;;12.65;;
64597;SDS011;51004;54.692;9.332;2023-09-07T08:42:41;12.65;;;11.50;;
64597;SDS011;51004;54.692;9.332;2023-09-07T08:45:08;15.80;;;10.20;;
64597;SDS011;51004;54.692;9.332;2023-09-07T08:47:34;10.95;;;9.85;;
64597;SDS011;51004;54.692;9.332;2023-09-07T08:50:02;14.02;;;11.10;;
64597;SDS011;51004;54.692;9.332;2023-09-07T08:52:28;13.30;;;9.52;;
64597;SDS011;51004;54.692;9.332;2023-09-07T08:54:58;12.07;;;10.75;;
64597;SDS011;51004;54.692;9.332;2023-09-07T08:57:26;11.98;;;10.77;;
64597;SDS011;51004;54.692;9.332;2023-09-07T08:59:52;12.02;;;10.73;;
64597;SDS011;51004;54.692;9.332;2023-09-07T09:02:18;12.18;;;9.93;;
64597;SDS011;51004;54.692;9.332;2023-09-07T09:04:45;12.25;;;10.77;;
64597;SDS011;51004;54.692;9.332;2023-09-07T09:07:11;13.25;;;10.15;;
64597;SDS011;51004;54.692;9.332;2023-09-07T09:09:37;18.35;;;13.20;;
64597;SDS011;51004;54.692;9.332;2023-09-07T09:12:09;19.05;;;11.95;;
64597;SDS011;51004;54.692;9.332;2023-09-07T09:14:35;12.98;;;11.73;;
64597;SDS011;51004;54.692;9.332;2023-09-07T09:17:04;15.88;;;10.88;;
64597;SDS011;51004;54.692;9.332;2023-09-07T09:19:33;13.07;;;11.50;;
64597;SDS011;51004;54.692;9.332;2023-09-07T09:22:00;13.02;;;11.73;;
64597;SDS011;51004;54.692;9.332;2023-09-07T09:24:27;11.95;;;10.85;;
64597;SDS011;51004;54.692;9.332;2023-09-07T09:26:55;11.60;;;10.23;;
64597;SDS011;51004;54.692;9.332;2023-09-07T09:29:22;11.27;;;10.23;;
64597;SDS011;51004;54.692;9.332;2023-09-07T09:31:48;14.45;;;12.63;;
64597;SDS011;51004;54.692;9.332;2023-09-07T09:34:14;15.73;;;11.98;;
64597;SDS011;51004;54.692;9.332;2023-09-07T09:36:41;13.70;;;12.20;;
64597;SDS011;51004;54.692;9.332;2023-09-07T09:39:21;12.60;;;11.30;;
64597;SDS011;51004;54.692;9.332;2023-09-07T09:41:50;13.10;;;11.20;;
64597;SDS011;51004;54.692;9.332;2023-09-07T09:44:16;14.43;;;12.02;;
64597;SDS011;51004;54.692;9.332;2023-09-07T09:46:42;14.18;;;11.23;;
64597;SDS011;51004;54.692;9.332;2023-09-07T09:49:09;17.15;;;12.95;;
64597;SDS011;51004;54.692;9.332;2023-09-07T09:51:38;13.77;;;12.38;;
64597;SDS011;51004;54.692;9.332;2023-09-07T09:54:11;15.18;;;13.70;;
64597;SDS011;51004;54.692;9.332;2023-09-07T09:56:38;16.45;;;12.80;;
64597;SDS011;51004;54.692;9.332;2023-09-07T09:59:04;15.93;;;14.05;;
64597;SDS011;51004;54.692;9.332;2023-09-07T10:01:36;12.95;;;11.60;;
64597;SDS011;51004;54.692;9.332;2023-09-07T10:04:06;14.02;;;12.50;;
64597;SDS011;51004;54.692;9.332;2023-09-07T10:06:34;13.55;;;12.18;;
64597;SDS011;51004;54.692;9.332;2023-09-07T10:09:05;13.73;;;12.32;;
64597;SDS011;51004;54.692;9.332;2023-09-07T10:11:42;16.80;;;12.40;;
64597;SDS011;51004;54.692;9.332;2023-09-07T10:14:08;15.70;;;14.07;;
64597;SDS011;51004;54.692;9.332;2023-09-07T10:16:52;16.13;;;12.98;;
64597;SDS011;51004;54.692;9.332;2023-09-07T10:19:21;15.25;;;12.80;;
64597;SDS011;51004;54.692;9.332;2023-09-07T10:21:47;15.25;;;13.40;;
64597;SDS011;51004;54.692;9.332;2023-09-07T10:24:26;14.35;;;12.95;;
64597;SDS011;51004;54.692;9.332;2023-09-07T10:26:57;14.65;;;13.13;;
